createdAt,value
2023-06-08T00:03:12.036Z,13.695652173913043
2023-06-08T00:13:54.146Z,14.354515050167224
2023-06-08T00:20:13.072Z,14.070234113712374
2023-06-08T00:40:27.595Z,17.401337792642142
2023-06-08T00:46:46.500Z,17.795986622073578
2023-06-08T00:53:05.520Z,17.899665551839465
2023-06-08T00:59:24.502Z,21.39799331103679
2023-06-08T01:05:44.110Z,21.25083612040134
2023-06-08T01:12:04.062Z,18.68561872909699
2023-06-08T01:18:23.685Z,18.210702341137125
2023-06-08T01:24:42.995Z,19.377926421404684
2023-06-08T01:39:29.334Z,18.337792642140467
2023-06-08T01:45:48.576Z,17.0
2023-06-08T01:52:10.458Z,17.82608695652174
2023-06-08T02:03:27.076Z,17.668896321070235
2023-06-08T02:09:46.549Z,16.31103678929766
2023-06-08T02:16:05.557Z,15.779264214046822
2023-06-08T02:22:25.398Z,15.678929765886288
2023-06-08T02:28:45.659Z,15.421404682274247
2023-06-08T02:40:16.410Z,15.193979933110368
2023-06-08T02:54:04.316Z,15.672240802675585
2023-06-08T03:04:17.606Z,14.816053511705686
2023-06-08T03:17:43.315Z,14.842809364548495
2023-06-08T03:24:02.997Z,14.74581939799331
2023-06-08T03:30:25.278Z,17.387959866220736
2023-06-08T03:36:46.835Z,20.441471571906355
2023-06-08T03:43:07.907Z,20.08026755852843
2023-06-08T03:49:35.266Z,18.421404682274247
2023-06-08T03:55:56.257Z,18.06354515050167
2023-06-08T04:02:19.227Z,17.498327759197323
2023-06-08T04:08:39.972Z,17.377926421404684
2023-06-08T04:15:07.511Z,15.34448160535117
2023-06-08T04:26:08.236Z,18.190635451505017
2023-06-08T04:33:32.542Z,18.581939799331103
2023-06-08T04:39:53.654Z,17.816053511705686
2023-06-08T04:46:15.675Z,23.25083612040134
2023-06-08T04:52:48.276Z,20.294314381270905
2023-06-08T05:07:36.779Z,23.899665551839465
2023-06-08T05:25:28.279Z,24.274247491638796
2023-06-08T05:33:06.646Z,20.91973244147157
2023-06-08T05:41:35.610Z,25.929765886287626
2023-06-08T05:55:25.376Z,17.76923076923077
2023-06-08T06:12:06.533Z,17.839464882943144
2023-06-08T06:18:28.723Z,16.71571906354515
2023-06-08T06:24:50.622Z,14.85953177257525
2023-06-08T06:31:14.095Z,13.434782608695652
2023-06-08T06:37:36.860Z,13.909698996655518
2023-06-08T06:44:57.425Z,14.073578595317725
2023-06-08T06:51:20.151Z,16.0
2023-06-08T06:57:42.874Z,13.33779264214047
2023-06-08T07:04:07.294Z,14.043478260869565
2023-06-08T07:10:30.331Z,12.51505016722408
2023-06-08T07:16:52.400Z,13.173913043478262
2023-06-08T07:23:44.472Z,13.187290969899665
2023-06-08T07:30:24.416Z,12.963210702341136
2023-06-08T07:36:47.722Z,13.34448160535117
2023-06-08T07:46:06.386Z,12.063545150501673
2023-06-08T07:52:29.989Z,12.297658862876254
2023-06-08T08:03:35.771Z,13.03010033444816
2023-06-08T08:09:59.300Z,10.735785953177258
2023-06-08T08:22:02.865Z,11.391304347826088
2023-06-08T08:28:25.892Z,11.053511705685619
2023-06-08T08:34:48.782Z,10.678929765886288
2023-06-08T08:42:46.715Z,11.120401337792643
2023-06-08T08:49:09.486Z,10.949832775919733
2023-06-08T08:55:35.548Z,10.642140468227424
2023-06-08T09:02:00.313Z,10.26086956521739
2023-06-08T09:08:29.149Z,10.91638795986622
2023-06-08T09:14:52.652Z,11.438127090301004
2023-06-08T09:28:31.267Z,10.545150501672241
2023-06-08T09:37:54.374Z,10.79598662207358
2023-06-08T09:44:17.129Z,10.448160535117056
2023-06-08T09:50:40.415Z,10.053511705685619
2023-06-08T09:57:03.011Z,10.404682274247492
2023-06-08T10:10:30.714Z,9.632107023411372
2023-06-08T10:16:54.367Z,9.678929765886288
2023-06-08T10:23:17.424Z,10.093645484949834
2023-06-08T10:31:36.727Z,9.82943143812709
2023-06-08T10:41:56.220Z,9.434782608695652
2023-06-08T10:48:19.772Z,9.879598662207357
2023-06-08T10:57:14.804Z,10.120401337792643
2023-06-08T11:03:40.451Z,10.411371237458194
2023-06-08T11:10:04.453Z,9.264214046822742
2023-06-08T11:16:27.153Z,9.906354515050166
2023-06-08T11:29:12.632Z,11.03010033444816
2023-06-08T11:35:36.186Z,9.953177257525084
2023-06-08T11:44:29.887Z,10.093645484949834
2023-06-08T11:50:53.204Z,10.732441471571907
2023-06-08T11:57:16.553Z,10.153846153846153
2023-06-08T12:10:20.632Z,10.494983277591974
2023-06-08T12:16:44.842Z,11.498327759197325
2023-06-08T12:23:08.631Z,11.357859531772576
2023-06-08T12:29:32.134Z,11.59866220735786
2023-06-08T12:35:55.282Z,12.387959866220736
2023-06-08T12:45:18.405Z,12.187290969899665
2023-06-08T12:51:43.235Z,12.331103678929766
2023-06-08T12:58:08.895Z,11.675585284280936
2023-06-08T13:04:32.837Z,12.120401337792643
2023-06-08T13:18:02.982Z,11.959866220735785
2023-06-08T13:24:26.146Z,12.167224080267559
2023-06-08T13:30:49.968Z,12.91304347826087
2023-06-08T13:42:23.258Z,11.217391304347826
2023-06-08T13:53:22.749Z,10.959866220735785
2023-06-08T14:00:20.337Z,11.494983277591974
2023-06-08T14:06:44.817Z,11.163879598662207
2023-06-08T14:22:03.143Z,11.080267558528428
2023-06-08T14:30:15.664Z,12.224080267558529
2023-06-08T14:36:39.512Z,12.548494983277592
2023-06-08T14:45:08.226Z,12.418060200668897
2023-06-08T14:51:38.204Z,11.963210702341136
2023-06-08T14:58:03.415Z,12.100334448160535
2023-06-08T15:10:00.452Z,12.558528428093645
2023-06-08T15:16:24.464Z,12.528428093645484
2023-06-08T15:22:47.526Z,14.983277591973245
2023-06-08T15:30:53.975Z,21.418060200668897
2023-06-08T15:38:10.530Z,16.73913043478261
2023-06-08T15:44:39.788Z,13.361204013377927
2023-06-08T15:51:02.080Z,13.538461538461538
2023-06-08T15:57:24.673Z,11.842809364548495
2023-06-08T16:11:51.172Z,11.822742474916389
2023-06-08T16:18:14.044Z,12.020066889632107
2023-06-08T16:24:36.824Z,11.31772575250836
2023-06-08T16:31:01.770Z,10.789297658862877
2023-06-08T16:37:25.067Z,11.498327759197325
2023-06-08T16:59:43.587Z,11.672240802675585
2023-06-08T17:06:06.180Z,18.585284280936456
2023-06-08T17:12:28.965Z,13.896321070234114
2023-06-08T17:18:51.556Z,9.341137123745819
2023-06-08T17:28:22.324Z,9.214046822742475
2023-06-08T17:34:45.207Z,8.123745819397993
2023-06-08T17:41:07.833Z,7.367892976588629
2023-06-08T17:47:31.090Z,6.709030100334449
2023-06-08T17:53:55.486Z,7.010033444816053
2023-06-08T18:00:20.925Z,6.3244147157190636
2023-06-08T18:06:43.906Z,6.3478260869565215
2023-06-08T18:13:07.020Z,7.150501672240803
2023-06-08T18:19:47.738Z,5.953177257525083
2023-06-08T18:27:33.757Z,5.183946488294314
2023-06-08T18:34:01.777Z,4.926421404682274
2023-06-08T18:45:49.776Z,4.364548494983278
2023-06-08T19:00:08.131Z,4.0
2023-06-08T19:06:40.985Z,4.642140468227424
2023-06-08T19:13:09.204Z,5.464882943143813
2023-06-08T19:19:38.615Z,4.31438127090301
2023-06-08T19:26:10.873Z,5.157190635451505
2023-06-08T19:36:09.194Z,4.421404682274248
2023-06-08T19:42:34.321Z,4.103678929765886
2023-06-08T19:48:56.287Z,4.702341137123746
2023-06-08T19:55:22.670Z,4.54180602006689
2023-06-08T20:01:55.052Z,4.946488294314381
2023-06-08T20:14:32.419Z,4.321070234113712
2023-06-08T20:20:58.928Z,4.39799331103679
2023-06-08T20:35:00.034Z,4.364548494983278
2023-06-08T20:41:24.720Z,4.234113712374582
2023-06-08T20:50:48.354Z,4.528428093645485
2023-06-08T20:57:13.585Z,4.073578595317726
2023-06-08T21:03:46.615Z,3.9163879598662206
2023-06-08T21:13:19.118Z,4.046822742474917
2023-06-08T21:19:47.367Z,4.882943143812709
2023-06-08T21:26:14.454Z,5.996655518394649
2023-06-08T21:39:59.721Z,4.270903010033445
2023-06-08T21:46:28.616Z,4.127090301003345
2023-06-08T21:52:57.855Z,3.8461538461538463
2023-06-08T21:59:21.860Z,5.110367892976589
2023-06-08T22:05:45.049Z,4.357859531772576
2023-06-08T22:13:27.172Z,4.565217391304348
2023-06-08T22:20:07.459Z,4.695652173913044
2023-06-08T22:26:30.517Z,5.103678929765886
2023-06-08T22:32:51.501Z,5.274247491638796
2023-06-08T22:39:11.926Z,5.1806020066889635
2023-06-08T22:47:16.654Z,5.8762541806020065
2023-06-08T22:53:37.823Z,4.839464882943144
2023-06-08T22:59:58.408Z,4.923076923076923
2023-06-08T23:10:19.062Z,7.040133779264214
2023-06-08T23:16:39.965Z,5.525083612040134
2023-06-08T23:27:36.230Z,5.210702341137123
2023-06-08T23:33:57.006Z,5.090301003344481
2023-06-08T23:48:35.449Z,5.25752508361204
2023-06-08T23:54:55.272Z,5.478260869565218
